Time;durP1;ratioP1;P1;durP2;ratioP2;P2;SDS_P1;SDS_P2;PMS_P1;PMS_P2;Temp;Humidity;BMP_temperature;BMP_pressure;BME280_temperature;BME280_humidity;BME280_pressure;Samples;Min_cycle;Max_cycle;Signal;HPM_P1;HPM_P2
2020/12/09 00:02:27;;;;;;;52.50;32.80;;;5.80;99.90;;;;;;5041404;28;20633;-67
2020/12/09 00:05:12;;;;;;;45.00;30.07;;;5.80;99.90;;;;;;5030817;28;20593;-66
2020/12/09 00:07:57;;;;;;;49.03;31.03;;;5.70;99.90;;;;;;5044766;28;21346;-66
2020/12/09 00:10:41;;;;;;;48.47;30.63;;;5.70;99.90;;;;;;5044775;28;20622;-66
2020/12/09 00:13:34;;;;;;;55.47;32.67;;;5.70;99.90;;;;;;5045516;28;20759;-66
2020/12/09 00:16:19;;;;;;;47.07;30.03;;;5.60;99.90;;;;;;5027737;28;20771;-68
2020/12/09 00:19:04;;;;;;;48.30;30.17;;;5.60;99.90;;;;;;5046533;28;20736;-66
2020/12/09 00:21:49;;;;;;;53.53;31.83;;;5.60;99.90;;;;;;5039313;28;20776;-66
2020/12/09 00:24:33;;;;;;;48.90;30.27;;;5.60;99.90;;;;;;5043957;28;20788;-66
2020/12/09 00:27:18;;;;;;;50.60;29.00;;;5.60;99.90;;;;;;5046009;28;20657;-66
2020/12/09 00:30:07;;;;;;;53.27;31.77;;;5.60;99.90;;;;;;5042454;28;20669;-65
2020/12/09 00:32:52;;;;;;;47.57;31.00;;;5.50;99.90;;;;;;5044331;28;20656;-66
2020/12/09 00:35:36;;;;;;;48.60;30.07;;;5.50;99.90;;;;;;5032367;28;20645;-66
2020/12/09 00:38:21;;;;;;;49.70;30.80;;;5.40;99.90;;;;;;5042531;28;20999;-66
2020/12/09 00:41:05;;;;;;;48.87;30.03;;;5.40;99.90;;;;;;5045644;28;20780;-66
2020/12/09 00:43:51;;;;;;;54.67;31.87;;;5.40;99.90;;;;;;5047794;28;20668;-66
2020/12/09 00:46:36;;;;;;;49.30;30.20;;;5.40;99.90;;;;;;5042086;28;20692;-66
2020/12/09 00:49:20;;;;;;;49.17;30.67;;;5.40;99.90;;;;;;5046425;28;20676;-65
2020/12/09 00:52:05;;;;;;;51.50;29.87;;;5.30;99.90;;;;;;5048367;28;21152;-65
2020/12/09 00:54:49;;;;;;;43.67;27.90;;;5.30;99.90;;;;;;5046773;28;20604;-66
2020/12/09 00:57:34;;;;;;;41.10;27.60;;;5.40;99.90;;;;;;5046827;28;20609;-66
2020/12/09 01:00:19;;;;;;;45.37;28.70;;;5.40;99.90;;;;;;5042684;28;20642;-66
2020/12/09 01:03:03;;;;;;;44.37;27.33;;;5.30;99.90;;;;;;5041867;28;20687;-66
2020/12/09 01:05:47;;;;;;;48.63;28.90;;;5.40;99.90;;;;;;5042283;28;20720;-66
2020/12/09 01:08:33;;;;;;;41.47;26.60;;;5.20;99.90;;;;;;5047043;28;21231;-66
2020/12/09 01:11:21;;;;;;;41.40;25.90;;;5.20;99.90;;;;;;5038054;28;20641;-66
2020/12/09 01:14:06;;;;;;;48.00;28.73;;;5.20;99.90;;;;;;5037176;28;20666;-67
2020/12/09 01:16:52;;;;;;;50.50;27.70;;;5.10;99.90;;;;;;5042339;28;20620;-66
2020/12/09 01:19:37;;;;;;;46.37;28.60;;;5.20;99.90;;;;;;5039592;28;20926;-65
2020/12/09 01:22:22;;;;;;;46.87;28.50;;;5.20;99.90;;;;;;5046085;28;20594;-66
2020/12/09 01:25:06;;;;;;;48.43;28.67;;;5.20;99.90;;;;;;5038584;28;21218;-66
2020/12/09 01:28:00;;;;;;;47.30;29.40;;;5.20;99.90;;;;;;5049215;28;20583;-65
2020/12/09 01:30:46;;;;;;;46.20;28.03;;;5.10;99.90;;;;;;5042052;28;20637;-66
2020/12/09 01:33:31;;;;;;;48.77;28.33;;;5.20;99.90;;;;;;5042634;28;20617;-68
2020/12/09 01:36:23;;;;;;;45.93;29.10;;;5.10;99.90;;;;;;5040211;28;20637;-66
2020/12/09 01:39:08;;;;;;;47.07;27.80;;;5.10;99.90;;;;;;5041969;28;20649;-65
2020/12/09 01:41:52;;;;;;;47.33;29.23;;;5.20;99.90;;;;;;5037898;28;20641;-65
2020/12/09 01:44:37;;;;;;;46.43;28.00;;;5.10;99.90;;;;;;5047543;28;20737;-66
2020/12/09 01:47:21;;;;;;;46.97;28.77;;;5.10;99.90;;;;;;5040520;28;20773;-66
2020/12/09 01:50:06;;;;;;;49.93;29.40;;;5.10;99.90;;;;;;5031831;28;20975;-65
2020/12/09 01:52:51;;;;;;;49.47;28.17;;;5.00;99.90;;;;;;5034784;28;20598;-66
2020/12/09 01:55:35;;;;;;;45.33;27.90;;;5.00;99.90;;;;;;5047343;28;20625;-66
2020/12/09 01:58:28;;;;;;;49.57;29.97;;;5.00;99.90;;;;;;5045432;28;21919;-66
2020/12/09 02:01:12;;;;;;;53.63;30.10;;;5.00;99.90;;;;;;5030290;28;20728;-66
2020/12/09 02:03:57;;;;;;;51.00;29.53;;;5.00;99.90;;;;;;5050921;28;20618;-66
2020/12/09 02:06:42;;;;;;;46.97;28.50;;;5.10;99.90;;;;;;5042486;28;20613;-66
2020/12/09 02:09:27;;;;;;;51.70;28.67;;;5.10;99.90;;;;;;5043879;28;20648;-66
2020/12/09 02:12:11;;;;;;;49.10;28.37;;;5.10;99.90;;;;;;5043574;28;20606;-66
2020/12/09 02:14:56;;;;;;;48.27;28.20;;;5.10;99.90;;;;;;5040314;28;20768;-66
2020/12/09 02:17:41;;;;;;;48.37;28.17;;;5.00;99.90;;;;;;5050758;28;20640;-66
2020/12/09 02:20:25;;;;;;;50.30;27.93;;;5.00;99.90;;;;;;5035535;28;20779;-65
2020/12/09 02:23:10;;;;;;;49.20;28.30;;;4.90;99.90;;;;;;5043482;28;20674;-66
2020/12/09 02:25:54;;;;;;;52.67;28.67;;;4.90;99.90;;;;;;5063626;28;21049;-66
2020/12/09 02:28:39;;;;;;;54.67;30.90;;;4.90;99.90;;;;;;5043272;28;21313;-64
2020/12/09 02:31:23;;;;;;;53.70;30.10;;;4.90;99.90;;;;;;5037508;28;20661;-66
2020/12/09 02:34:08;;;;;;;50.90;29.13;;;4.90;99.90;;;;;;5041383;28;20668;-66
2020/12/09 02:36:53;;;;;;;50.27;29.90;;;5.00;99.90;;;;;;5042768;28;20625;-65
2020/12/09 02:39:38;;;;;;;53.67;28.73;;;5.00;99.90;;;;;;5036744;28;20641;-66
2020/12/09 02:42:23;;;;;;;49.17;29.30;;;5.00;99.90;;;;;;5040652;28;21049;-66
2020/12/09 02:45:10;;;;;;;48.20;27.20;;;4.90;99.90;;;;;;5039843;28;20605;-66
2020/12/09 02:47:54;;;;;;;53.30;29.73;;;4.90;99.90;;;;;;5034358;28;20582;-66
2020/12/09 02:50:39;;;;;;;52.53;28.03;;;4.90;99.90;;;;;;5037024;28;20646;-66
2020/12/09 02:53:23;;;;;;;51.70;28.90;;;4.90;99.90;;;;;;5041336;28;20656;-65
2020/12/09 02:56:08;;;;;;;50.17;27.37;;;4.90;99.90;;;;;;5050597;28;20756;-66
2020/12/09 02:58:53;;;;;;;52.43;29.00;;;4.90;99.90;;;;;;5046069;28;20657;-66
2020/12/09 03:01:37;;;;;;;44.77;26.10;;;4.90;99.90;;;;;;5040707;28;20641;-66
2020/12/09 03:04:22;;;;;;;50.33;27.10;;;5.00;99.90;;;;;;5043088;28;20594;-66
2020/12/09 03:07:08;;;;;;;47.17;26.97;;;4.90;99.90;;;;;;5046701;28;21111;-67
2020/12/09 03:09:56;;;;;;;52.67;28.97;;;4.90;99.90;;;;;;5039622;28;20658;-65
2020/12/09 03:12:42;;;;;;;46.70;27.27;;;4.90;99.90;;;;;;5047270;28;20629;-65
2020/12/09 03:15:27;;;;;;;52.13;28.70;;;5.00;99.90;;;;;;5042534;28;20677;-66
2020/12/09 03:18:12;;;;;;;55.80;30.03;;;5.00;99.90;;;;;;5040630;28;20717;-66
2020/12/09 03:20:56;;;;;;;54.77;30.00;;;5.00;99.90;;;;;;5034620;28;20625;-66
2020/12/09 03:23:43;;;;;;;53.33;31.40;;;5.00;99.90;;;;;;5042181;28;20676;-66
2020/12/09 03:26:28;;;;;;;53.50;29.67;;;5.00;99.90;;;;;;5048830;28;20590;-66
2020/12/09 03:29:12;;;;;;;49.30;27.33;;;5.00;99.90;;;;;;5041736;28;20740;-66
2020/12/09 03:31:56;;;;;;;48.63;27.83;;;5.00;99.90;;;;;;5043964;28;20644;-66
2020/12/09 03:34:41;;;;;;;49.00;26.10;;;5.00;99.90;;;;;;5052561;28;20637;-66
2020/12/09 03:37:25;;;;;;;54.30;28.43;;;5.00;99.90;;;;;;5052928;28;20629;-66
2020/12/09 03:40:10;;;;;;;51.47;28.47;;;5.10;99.90;;;;;;5050523;28;20715;-67
2020/12/09 03:42:54;;;;;;;43.10;25.87;;;5.00;99.90;;;;;;5051349;28;20603;-65
2020/12/09 03:45:39;;;;;;;48.63;27.20;;;5.10;99.90;;;;;;5054831;28;20761;-66
2020/12/09 03:48:26;;;;;;;44.77;25.60;;;5.00;99.90;;;;;;5047813;28;20691;-65
2020/12/09 03:51:10;;;;;;;43.43;25.40;;;5.00;99.90;;;;;;5039106;28;20634;-65
2020/12/09 03:53:55;;;;;;;44.53;25.50;;;5.00;99.90;;;;;;5048391;28;20706;-66
2020/12/09 03:56:39;;;;;;;49.33;27.53;;;5.00;99.90;;;;;;5047423;28;20660;-66
2020/12/09 03:59:23;;;;;;;45.80;26.60;;;5.00;99.90;;;;;;5040386;28;20648;-66
2020/12/09 04:02:08;;;;;;;42.07;25.50;;;5.00;99.90;;;;;;5040804;28;20692;-66
2020/12/09 04:04:53;;;;;;;44.73;26.63;;;5.10;99.90;;;;;;5048103;28;20725;-65
2020/12/09 04:07:37;;;;;;;45.57;25.60;;;5.10;99.90;;;;;;5043131;28;21080;-67
2020/12/09 04:10:21;;;;;;;47.03;27.13;;;5.10;99.90;;;;;;5043167;28;20688;-66
2020/12/09 04:13:06;;;;;;;40.90;25.03;;;5.00;99.90;;;;;;5046884;28;20636;-66
2020/12/09 04:15:50;;;;;;;46.47;24.93;;;5.10;99.90;;;;;;5038342;28;20712;-66
2020/12/09 04:18:35;;;;;;;41.87;25.20;;;5.00;99.90;;;;;;5045874;28;20954;-66
2020/12/09 04:21:19;;;;;;;39.23;24.27;;;5.10;99.90;;;;;;5036845;28;20646;-66
2020/12/09 04:24:04;;;;;;;49.50;26.10;;;5.10;99.90;;;;;;5045370;28;20920;-66
2020/12/09 04:26:49;;;;;;;48.93;26.60;;;5.10;99.90;;;;;;5043429;28;20630;-66
2020/12/09 04:29:33;;;;;;;47.77;26.97;;;5.10;99.90;;;;;;5046836;28;20793;-65
2020/12/09 04:32:18;;;;;;;47.50;27.00;;;5.10;99.90;;;;;;5040144;28;20685;-66
2020/12/09 04:35:04;;;;;;;46.80;26.30;;;5.10;99.90;;;;;;5041172;28;20594;-66
2020/12/09 04:37:55;;;;;;;49.77;27.17;;;5.10;99.90;;;;;;5037753;28;21266;-66
2020/12/09 04:40:39;;;;;;;47.70;28.27;;;5.10;99.90;;;;;;5039982;28;20623;-66
2020/12/09 04:43:24;;;;;;;48.07;26.50;;;5.10;99.90;;;;;;5046719;28;20613;-66
2020/12/09 04:46:09;;;;;;;46.23;27.70;;;5.10;99.90;;;;;;5047754;28;20617;-66
2020/12/09 04:49:03;;;;;;;50.67;28.23;;;5.20;99.90;;;;;;5044039;28;20657;-66
2020/12/09 04:52:16;;;;;;;42.03;25.00;;;5.20;99.90;;;;;;5033461;28;20649;-66
2020/12/09 04:55:12;;;;;;;49.30;27.37;;;5.10;99.90;;;;;;5032110;28;20611;-66
2020/12/09 04:57:56;;;;;;;47.30;26.23;;;5.10;99.90;;;;;;5048968;28;21076;-66
2020/12/09 05:00:44;;;;;;;54.07;28.97;;;5.20;99.90;;;;;;5039708;28;21212;-66
2020/12/09 05:03:57;;;;;;;49.83;27.40;;;5.20;99.90;;;;;;5047938;28;21268;-66
2020/12/09 05:06:42;;;;;;;49.27;27.20;;;5.20;99.90;;;;;;5045408;28;21020;-66
2020/12/09 05:09:27;;;;;;;51.73;28.27;;;5.20;99.90;;;;;;5058351;28;20636;-65
2020/12/09 05:12:17;;;;;;;47.50;27.77;;;5.20;99.90;;;;;;5057013;28;20618;-66
2020/12/09 05:15:02;;;;;;;46.70;27.97;;;5.20;99.90;;;;;;5055223;28;21236;-66
2020/12/09 05:17:59;;;;;;;50.80;28.10;;;5.20;99.90;;;;;;5040842;28;20819;-66
2020/12/09 05:20:44;;;;;;;51.60;28.33;;;5.20;99.90;;;;;;5042718;28;20621;-65
2020/12/09 05:23:31;;;;;;;47.63;26.73;;;5.20;99.90;;;;;;5042351;28;20605;-66
2020/12/09 05:26:33;;;;;;;47.90;27.47;;;5.20;99.90;;;;;;5045966;28;20721;-66
2020/12/09 05:29:19;;;;;;;47.17;27.80;;;5.20;99.90;;;;;;5043946;28;20668;-66
2020/12/09 05:32:03;;;;;;;43.83;27.17;;;5.20;99.90;;;;;;5038714;28;20590;-66
2020/12/09 05:34:48;;;;;;;46.30;26.23;;;5.20;99.90;;;;;;5039741;28;20598;-66
2020/12/09 05:37:32;;;;;;;47.17;27.50;;;5.20;99.90;;;;;;5039994;28;20656;-66
2020/12/09 05:40:28;;;;;;;51.03;28.30;;;5.20;99.90;;;;;;5038165;28;20634;-67
2020/12/09 05:43:17;;;;;;;39.97;25.13;;;5.20;99.90;;;;;;5043656;28;20590;-66
2020/12/09 05:46:09;;;;;;;46.70;26.13;;;5.20;99.90;;;;;;5045799;28;20626;-66
2020/12/09 05:48:54;;;;;;;53.97;28.87;;;5.20;99.90;;;;;;5042077;28;20708;-67
2020/12/09 05:51:41;;;;;;;47.80;27.30;;;5.20;99.90;;;;;;5037829;28;20665;-65
2020/12/09 05:54:26;;;;;;;50.73;27.20;;;5.20;99.90;;;;;;5041374;28;21136;-65
2020/12/09 05:57:16;;;;;;;52.50;27.73;;;5.20;99.90;;;;;;5033794;28;20728;-67
2020/12/09 06:00:00;;;;;;;50.67;28.93;;;5.20;99.90;;;;;;5034888;28;20678;-66
2020/12/09 06:02:48;;;;;;;48.37;27.20;;;5.20;99.90;;;;;;5034931;28;20641;-67
2020/12/09 06:05:33;;;;;;;51.30;28.70;;;5.20;99.90;;;;;;5034502;28;20718;-66
2020/12/09 06:08:36;;;;;;;42.03;26.50;;;5.20;99.90;;;;;;5032369;28;20645;-66
2020/12/09 06:11:30;;;;;;;48.80;27.63;;;5.20;99.90;;;;;;5032133;28;20741;-65
2020/12/09 06:14:18;;;;;;;49.67;28.70;;;5.20;99.90;;;;;;5043310;28;21268;-66
2020/12/09 06:17:03;;;;;;;43.57;26.20;;;5.30;99.90;;;;;;5039186;28;21310;-67
2020/12/09 06:19:49;;;;;;;52.70;30.13;;;5.30;99.90;;;;;;5039096;28;20715;-66
2020/12/09 06:22:34;;;;;;;45.53;26.80;;;5.30;99.90;;;;;;5038916;28;20602;-66
2020/12/09 06:25:21;;;;;;;50.27;27.90;;;5.20;99.90;;;;;;5043346;28;20586;-65
2020/12/09 06:28:12;;;;;;;47.60;26.00;;;5.20;99.90;;;;;;5033189;28;20715;-65
2020/12/09 06:31:10;;;;;;;52.00;28.73;;;5.20;99.90;;;;;;5027630;28;20680;-66
2020/12/09 06:33:57;;;;;;;47.47;27.03;;;5.30;99.90;;;;;;5031563;28;20610;-65
2020/12/09 06:36:41;;;;;;;50.50;28.93;;;5.30;99.90;;;;;;5047517;28;20662;-65
2020/12/09 06:39:29;;;;;;;54.50;29.07;;;5.40;99.90;;;;;;5041599;28;20660;-65
2020/12/09 06:42:14;;;;;;;51.73;29.73;;;5.30;99.90;;;;;;5037270;28;20605;-65
2020/12/09 06:45:00;;;;;;;46.83;26.63;;;5.30;99.90;;;;;;5038943;28;20688;-64
2020/12/09 06:48:09;;;;;;;49.63;27.20;;;5.40;99.90;;;;;;5037047;28;20661;-65
2020/12/09 06:50:54;;;;;;;49.40;29.00;;;5.40;99.90;;;;;;5034211;28;20654;-65
2020/12/09 06:53:38;;;;;;;52.30;28.40;;;5.40;99.90;;;;;;5042572;28;20721;-67
2020/12/09 06:56:22;;;;;;;55.97;33.40;;;5.40;99.90;;;;;;5043369;28;20777;-66
2020/12/09 06:59:28;;;;;;;53.17;31.30;;;5.40;99.90;;;;;;5042746;28;20206;-65
2020/12/09 07:02:28;;;;;;;54.27;30.30;;;5.40;99.90;;;;;;5037054;28;21040;-66
2020/12/09 07:05:15;;;;;;;48.70;28.60;;;5.40;99.90;;;;;;5019671;28;20579;-66
2020/12/09 07:08:04;;;;;;;45.77;28.83;;;5.40;99.90;;;;;;5031657;28;20597;-67
2020/12/09 07:10:49;;;;;;;50.50;28.10;;;5.40;99.90;;;;;;5040027;28;20637;-66
2020/12/09 07:13:34;;;;;;;49.10;28.47;;;5.40;99.90;;;;;;5044577;28;21226;-66
2020/12/09 07:16:28;;;;;;;54.10;28.93;;;5.50;99.90;;;;;;5037559;28;20653;-65
2020/12/09 07:19:15;;;;;;;47.80;27.83;;;5.40;99.90;;;;;;5043448;28;20673;-66
2020/12/09 07:22:03;;;;;;;45.73;28.03;;;5.40;99.90;;;;;;5042364;28;20639;-66
2020/12/09 07:24:47;;;;;;;48.07;28.17;;;5.40;99.90;;;;;;5046584;28;20927;-66
2020/12/09 07:27:34;;;;;;;47.93;27.43;;;5.50;99.90;;;;;;5043710;28;20975;-66
2020/12/09 07:30:20;;;;;;;48.73;28.20;;;5.40;99.90;;;;;;5048917;28;20653;-66
2020/12/09 07:33:04;;;;;;;43.13;27.50;;;5.40;99.90;;;;;;5041565;28;20593;-66
2020/12/09 07:35:51;;;;;;;46.83;27.63;;;5.40;99.90;;;;;;5046168;28;20926;-68
2020/12/09 07:38:35;;;;;;;50.17;28.17;;;5.40;99.90;;;;;;5043747;28;20703;-66
2020/12/09 07:41:20;;;;;;;47.93;27.87;;;5.40;99.90;;;;;;5038225;28;20648;-65
2020/12/09 07:44:05;;;;;;;49.57;28.20;;;5.40;99.90;;;;;;5041001;28;20751;-68
2020/12/09 07:46:57;;;;;;;49.33;28.80;;;5.40;99.90;;;;;;5045156;28;20892;-66
2020/12/09 07:49:50;;;;;;;48.90;27.53;;;5.40;99.90;;;;;;5038777;28;20795;-66
2020/12/09 07:52:37;;;;;;;50.70;29.17;;;5.40;99.90;;;;;;5040836;28;20594;-66
2020/12/09 07:55:22;;;;;;;49.93;27.37;;;5.40;99.90;;;;;;5062881;28;20596;-66
2020/12/09 07:58:09;;;;;;;46.07;28.03;;;5.50;99.90;;;;;;5065560;28;20733;-66
2020/12/09 08:00:55;;;;;;;53.00;29.80;;;5.50;99.90;;;;;;5045477;28;20652;-65
2020/12/09 08:03:40;;;;;;;46.07;26.77;;;5.50;99.90;;;;;;5048890;28;20593;-66
2020/12/09 08:06:24;;;;;;;51.40;29.80;;;5.50;99.90;;;;;;5041320;28;21266;-66
2020/12/09 08:09:15;;;;;;;53.83;30.43;;;5.50;99.90;;;;;;5033185;28;20783;-66
2020/12/09 08:12:00;;;;;;;52.53;29.43;;;5.50;99.90;;;;;;5054557;28;20644;-66
2020/12/09 08:14:45;;;;;;;52.10;28.20;;;5.50;99.90;;;;;;5047384;28;20772;-67
2020/12/09 08:17:30;;;;;;;55.73;31.20;;;5.50;99.90;;;;;;5040778;28;20628;-66
2020/12/09 08:20:15;;;;;;;52.27;30.13;;;5.50;99.90;;;;;;5038891;28;20767;-67
2020/12/09 08:23:01;;;;;;;53.20;30.00;;;5.50;99.90;;;;;;5040203;28;20677;-66
2020/12/09 08:25:51;;;;;;;52.30;29.10;;;5.50;99.90;;;;;;5045447;28;20608;-66
2020/12/09 08:28:36;;;;;;;54.27;28.63;;;5.50;99.90;;;;;;5035635;28;21013;-66
2020/12/09 08:31:21;;;;;;;52.43;28.50;;;5.50;99.90;;;;;;5061862;23;20752;-68
2020/12/09 08:34:15;;;;;;;51.67;29.33;;;5.50;99.90;;;;;;5052951;28;20687;-68
2020/12/09 08:36:59;;;;;;;48.50;27.17;;;5.50;99.90;;;;;;5060228;28;20730;-69
2020/12/09 08:39:44;;;;;;;47.67;27.50;;;5.50;99.90;;;;;;5048780;28;20625;-68
2020/12/09 08:42:28;;;;;;;51.03;28.57;;;5.50;99.90;;;;;;5030199;28;20620;-69
2020/12/09 08:45:13;;;;;;;51.70;29.17;;;5.50;99.90;;;;;;5028947;28;20711;-69
2020/12/09 08:47:57;;;;;;;43.77;27.07;;;5.50;99.90;;;;;;5032689;28;20615;-69
2020/12/09 08:50:42;;;;;;;47.20;27.43;;;5.50;99.90;;;;;;5029993;28;20995;-69
2020/12/09 08:53:27;;;;;;;46.10;27.53;;;5.50;99.90;;;;;;5036799;28;20633;-68
2020/12/09 08:56:12;;;;;;;49.30;28.47;;;5.40;99.90;;;;;;5042659;28;20649;-69
2020/12/09 08:58:58;;;;;;;45.73;26.73;;;5.40;99.90;;;;;;5034022;28;20657;-69
2020/12/09 09:01:42;;;;;;;46.07;26.40;;;5.50;99.90;;;;;;5031480;28;20629;-69
2020/12/09 09:04:31;;;;;;;47.73;26.40;;;5.50;99.90;;;;;;5033952;28;20574;-69
2020/12/09 09:07:16;;;;;;;41.27;24.67;;;5.40;99.90;;;;;;5032393;28;20615;-68
2020/12/09 09:10:01;;;;;;;42.40;25.60;;;5.50;99.90;;;;;;5026768;28;20648;-68
2020/12/09 09:12:45;;;;;;;46.13;26.00;;;5.50;99.90;;;;;;5051616;28;20612;-68
2020/12/09 09:15:34;;;;;;;45.07;25.43;;;5.50;99.90;;;;;;5048768;28;21199;-68
2020/12/09 09:18:19;;;;;;;45.07;25.87;;;5.60;99.90;;;;;;5036202;28;21265;-69
2020/12/09 09:21:03;;;;;;;42.70;25.03;;;5.60;99.90;;;;;;5020852;28;20648;-69
2020/12/09 09:23:48;;;;;;;40.97;25.30;;;5.60;99.90;;;;;;5040103;28;20574;-68
2020/12/09 09:26:34;;;;;;;42.27;25.87;;;5.50;99.90;;;;;;5036329;28;20671;-68
2020/12/09 09:29:18;;;;;;;43.07;25.60;;;5.60;99.90;;;;;;5045600;28;20636;-69
2020/12/09 09:32:04;;;;;;;38.37;23.17;;;5.70;99.90;;;;;;5036727;28;20617;-69
2020/12/09 09:34:48;;;;;;;43.90;25.93;;;5.60;99.90;;;;;;5033049;28;20591;-68
2020/12/09 09:37:33;;;;;;;43.80;25.60;;;5.60;99.90;;;;;;5042110;28;20692;-69
2020/12/09 09:40:18;;;;;;;44.77;26.33;;;5.60;99.90;;;;;;5029777;28;20680;-68
2020/12/09 09:43:03;;;;;;;41.77;26.07;;;5.60;99.90;;;;;;5050327;28;20634;-68
2020/12/09 09:45:49;;;;;;;41.07;25.53;;;5.60;99.90;;;;;;5040427;28;20645;-69
2020/12/09 09:48:34;;;;;;;39.33;24.13;;;5.60;99.90;;;;;;5026079;28;20653;-70
2020/12/09 09:51:18;;;;;;;42.93;25.27;;;5.60;99.90;;;;;;5034571;28;20717;-68
2020/12/09 09:54:03;;;;;;;37.20;23.77;;;5.60;99.90;;;;;;5037973;28;20584;-69
2020/12/09 09:56:49;;;;;;;43.27;25.60;;;5.60;99.90;;;;;;5034496;28;20641;-68
2020/12/09 09:59:36;;;;;;;40.70;23.70;;;5.60;99.90;;;;;;5047208;28;20621;-69
2020/12/09 10:02:21;;;;;;;37.47;23.30;;;5.70;99.90;;;;;;5034227;28;20946;-69
2020/12/09 10:05:05;;;;;;;41.20;25.17;;;5.60;99.90;;;;;;5045558;28;20838;-70
2020/12/09 10:07:50;;;;;;;36.90;23.30;;;5.70;99.90;;;;;;5030377;28;23616;-69
2020/12/09 10:10:35;;;;;;;40.27;23.70;;;5.60;99.90;;;;;;5042442;28;20653;-69
2020/12/09 10:13:20;;;;;;;39.93;23.93;;;5.60;99.90;;;;;;5038397;28;20601;-70
2020/12/09 10:16:04;;;;;;;39.67;25.67;;;5.60;99.90;;;;;;5026852;28;20640;-69
2020/12/09 10:18:49;;;;;;;38.13;22.70;;;5.60;99.90;;;;;;5042754;28;20688;-69
2020/12/09 10:21:34;;;;;;;40.00;24.77;;;5.70;99.90;;;;;;5033322;28;20645;-69
2020/12/09 10:24:19;;;;;;;37.10;23.33;;;5.70;99.90;;;;;;5046420;28;20613;-69
2020/12/09 10:27:03;;;;;;;45.37;26.70;;;5.70;99.90;;;;;;5031121;28;20652;-68
2020/12/09 10:29:48;;;;;;;38.03;22.70;;;5.70;99.90;;;;;;5028880;28;20638;-68
2020/12/09 10:32:39;;;;;;;40.33;23.77;;;5.70;99.90;;;;;;5051094;28;20598;-69
2020/12/09 10:35:23;;;;;;;38.33;24.40;;;5.70;99.90;;;;;;5043359;28;20729;-70
2020/12/09 10:38:08;;;;;;;37.80;22.57;;;5.70;99.90;;;;;;5017149;28;20627;-69
2020/12/09 10:40:53;;;;;;;37.40;24.40;;;5.80;99.90;;;;;;5031987;28;20661;-69
2020/12/09 10:43:39;;;;;;;36.43;24.30;;;5.70;99.90;;;;;;5035569;28;20967;-70
2020/12/09 10:46:31;;;;;;;41.63;24.73;;;5.70;99.90;;;;;;5025867;28;20605;-69
2020/12/09 10:49:16;;;;;;;37.53;23.17;;;5.80;99.90;;;;;;5027396;28;20601;-68
2020/12/09 10:52:03;;;;;;;40.47;23.17;;;5.70;99.90;;;;;;5037114;28;20741;-68
2020/12/09 10:54:48;;;;;;;41.43;26.00;;;5.90;99.90;;;;;;5030136;28;20586;-68
2020/12/09 10:57:33;;;;;;;41.17;24.97;;;5.70;99.90;;;;;;5050914;28;20648;-69
2020/12/09 11:00:17;;;;;;;42.73;25.97;;;5.70;99.90;;;;;;5023754;28;20653;-70
2020/12/09 11:03:02;;;;;;;42.47;25.63;;;5.70;99.90;;;;;;5035021;28;20594;-70
2020/12/09 11:05:47;;;;;;;45.40;26.27;;;5.80;99.90;;;;;;5033411;28;20586;-69
2020/12/09 11:08:31;;;;;;;44.50;24.47;;;5.80;99.90;;;;;;5024969;28;21030;-69
2020/12/09 11:11:17;;;;;;;42.77;25.30;;;5.70;99.90;;;;;;5053759;28;20656;-68
2020/12/09 11:14:02;;;;;;;43.57;26.07;;;5.80;99.90;;;;;;5044624;28;21242;-69
2020/12/09 11:16:56;;;;;;;44.13;27.33;;;5.80;99.90;;;;;;5037593;28;20932;-69
2020/12/09 11:19:41;;;;;;;47.83;28.00;;;5.80;99.90;;;;;;5034419;28;20645;-68
2020/12/09 11:22:26;;;;;;;45.80;26.80;;;5.90;99.90;;;;;;5020604;28;20618;-69
2020/12/09 11:25:10;;;;;;;46.13;27.33;;;5.90;99.90;;;;;;5028636;28;20759;-69
2020/12/09 11:27:55;;;;;;;47.50;26.50;;;6.00;99.90;;;;;;5039744;28;20669;-68
2020/12/09 11:30:40;;;;;;;45.70;26.63;;;5.90;99.90;;;;;;5023260;28;20658;-69
2020/12/09 11:33:24;;;;;;;49.30;27.23;;;6.10;99.90;;;;;;5043880;28;20633;-69
2020/12/09 11:36:09;;;;;;;46.03;27.70;;;5.90;99.90;;;;;;5025616;28;20594;-68
2020/12/09 11:38:54;;;;;;;47.00;27.63;;;5.90;99.90;;;;;;5024853;28;20627;-69
2020/12/09 11:41:42;;;;;;;48.33;25.87;;;5.90;99.90;;;;;;5035594;28;20644;-69
2020/12/09 11:44:26;;;;;;;46.17;26.90;;;5.90;99.90;;;;;;5027332;28;20676;-69
2020/12/09 11:47:11;;;;;;;43.90;26.97;;;5.90;99.90;;;;;;5041005;28;20586;-68
2020/12/09 11:49:55;;;;;;;52.00;28.50;;;6.00;99.90;;;;;;5034960;28;21013;-70
2020/12/09 11:52:40;;;;;;;44.63;27.17;;;6.00;99.90;;;;;;5048405;28;21019;-68
2020/12/09 11:55:25;;;;;;;48.20;27.30;;;6.00;99.90;;;;;;5047842;28;20697;-68
2020/12/09 11:58:09;;;;;;;44.77;26.43;;;6.00;99.90;;;;;;5033381;28;20659;-68
2020/12/09 12:00:54;;;;;;;44.70;26.90;;;6.00;99.90;;;;;;5038748;28;20654;-69
2020/12/09 12:03:38;;;;;;;40.97;25.60;;;6.10;99.90;;;;;;5023902;28;21260;-68
2020/12/09 12:06:26;;;;;;;47.60;27.73;;;6.10;99.90;;;;;;5034632;28;20970;-70
2020/12/09 12:09:11;;;;;;;45.63;28.40;;;6.00;99.90;;;;;;5014768;28;20647;-69
2020/12/09 12:11:55;;;;;;;43.17;26.70;;;6.00;99.90;;;;;;5052088;28;20657;-69
2020/12/09 12:14:40;;;;;;;48.10;27.03;;;5.90;99.90;;;;;;5052784;28;20607;-69
2020/12/09 12:17:24;;;;;;;46.37;27.93;;;5.90;99.90;;;;;;5049888;28;20626;-68
2020/12/09 12:20:09;;;;;;;49.60;27.07;;;5.90;99.90;;;;;;5064976;28;20732;-69
2020/12/09 12:22:54;;;;;;;43.50;27.07;;;5.90;99.90;;;;;;5057612;28;20609;-68
2020/12/09 12:25:38;;;;;;;44.00;26.83;;;5.90;99.90;;;;;;5052590;28;20626;-68
2020/12/09 12:28:24;;;;;;;45.20;25.93;;;5.90;99.90;;;;;;5041765;28;20589;-68
2020/12/09 12:31:13;;;;;;;51.53;28.37;;;5.90;99.90;;;;;;5048107;28;20645;-69
2020/12/09 12:33:57;;;;;;;48.10;28.60;;;5.90;99.90;;;;;;5056738;28;20617;-68
2020/12/09 12:36:42;;;;;;;45.13;26.60;;;5.90;99.90;;;;;;5054049;28;21135;-68
2020/12/09 12:39:26;;;;;;;46.60;27.77;;;5.90;99.90;;;;;;5053290;28;20688;-69
2020/12/09 12:42:11;;;;;;;49.50;28.00;;;5.90;99.90;;;;;;5047004;28;20613;-70
2020/12/09 12:44:55;;;;;;;43.57;26.23;;;5.90;99.90;;;;;;5055105;28;20740;-69
2020/12/09 12:47:40;;;;;;;43.33;27.40;;;5.90;99.90;;;;;;5056341;28;20582;-69
2020/12/09 12:50:25;;;;;;;45.70;27.37;;;6.00;99.90;;;;;;5037849;28;20653;-69
2020/12/09 12:53:10;;;;;;;50.30;27.83;;;6.00;99.90;;;;;;5054480;28;20701;-70
2020/12/09 12:55:55;;;;;;;46.27;28.37;;;6.00;99.90;;;;;;5049784;28;20898;-68
2020/12/09 12:58:40;;;;;;;45.50;27.03;;;6.00;99.90;;;;;;5058791;28;20789;-69
2020/12/09 13:01:25;;;;;;;48.53;29.10;;;6.00;99.90;;;;;;5063052;28;20649;-69
2020/12/09 13:04:09;;;;;;;47.20;29.07;;;6.00;99.90;;;;;;5052492;28;20734;-69
2020/12/09 13:06:54;;;;;;;48.00;28.90;;;6.00;99.90;;;;;;5060689;28;20653;-69
2020/12/09 13:09:38;;;;;;;47.47;27.03;;;6.10;99.90;;;;;;5033934;28;20820;-69
2020/12/09 13:12:23;;;;;;;51.87;28.97;;;6.10;99.90;;;;;;5047793;28;21180;-69
2020/12/09 13:15:07;;;;;;;49.77;29.40;;;6.10;99.90;;;;;;5057768;28;20763;-69
2020/12/09 13:17:52;;;;;;;54.93;29.13;;;6.10;99.90;;;;;;5049670;28;20767;-69
2020/12/09 13:20:37;;;;;;;58.33;30.53;;;6.00;99.90;;;;;;5042731;28;21296;-69
2020/12/09 13:23:22;;;;;;;51.60;29.53;;;6.10;99.90;;;;;;5047964;28;20648;-69
2020/12/09 13:26:06;;;;;;;48.20;29.43;;;6.00;99.90;;;;;;5050289;28;21177;-69
2020/12/09 13:28:51;;;;;;;50.10;28.47;;;6.00;99.90;;;;;;5049828;28;20592;-69
2020/12/09 13:31:38;;;;;;;47.50;27.70;;;6.00;99.90;;;;;;5048293;28;20649;-69
2020/12/09 13:34:22;;;;;;;48.73;27.30;;;6.00;99.90;;;;;;5040906;28;20968;-68
2020/12/09 13:37:06;;;;;;;53.13;29.00;;;6.10;99.90;;;;;;5040060;28;20792;-70
2020/12/09 13:39:51;;;;;;;51.83;29.27;;;6.00;99.90;;;;;;5061137;28;20688;-69
2020/12/09 13:42:35;;;;;;;50.63;31.60;;;6.00;99.90;;;;;;5056217;28;20617;-68
2020/12/09 13:45:20;;;;;;;49.60;29.20;;;6.10;99.90;;;;;;5044843;28;20704;-69
2020/12/09 13:48:04;;;;;;;48.17;30.40;;;6.00;99.90;;;;;;5059001;28;21233;-69
2020/12/09 13:50:50;;;;;;;51.63;29.20;;;6.00;99.90;;;;;;5043284;28;20750;-68
2020/12/09 13:53:34;;;;;;;48.77;29.60;;;6.00;99.90;;;;;;5050897;28;20724;-68
2020/12/09 13:56:26;;;;;;;51.07;30.57;;;6.00;99.90;;;;;;5049026;28;20601;-68
2020/12/09 13:59:10;;;;;;;51.17;30.83;;;6.10;99.90;;;;;;5017568;28;20793;-69
2020/12/09 14:01:55;;;;;;;46.63;29.70;;;6.10;99.90;;;;;;5031438;28;20656;-69
2020/12/09 14:04:40;;;;;;;50.90;30.03;;;6.10;99.90;;;;;;5048382;28;22602;-70
2020/12/09 14:07:24;;;;;;;49.50;29.53;;;6.10;99.90;;;;;;5034913;28;21262;-70
2020/12/09 14:10:09;;;;;;;52.93;30.70;;;6.10;99.90;;;;;;5031927;28;20724;-69
2020/12/09 14:12:53;;;;;;;48.20;29.50;;;6.10;99.90;;;;;;5060880;28;20643;-74